North Clarendon, VT

5:42 AM EST on February 27, 2017 (GMT -0500)
Rutland State

Weather History for KRUT - November, 2013

Change the Weather History Date:

Sunday, November 24, 2013

  Actual Average Record
Temperature  
Mean Temperature 18 °F -  
Max Temperature 23 °F - 69 °F (1979)
Min Temperature 12 °F - 5 °F (1989)
Degree Days  
Heating Degree Days 47    
Month to date heating degree days 652  
Since 1 July heating degree days 1465  
Cooling Degree Days 0    
Month to date cooling degree days 0  
Year to date cooling degree days 449  
Moisture  
Dew Point 2 °F    
Average Humidity 60    
Maximum Humidity 80    
Minimum Humidity 39    
Precipitation  
Precipitation 0.00 in - 0.70 in (1961)
Month to date precipitation 1.61  
Year to date precipitation 22.74  
Sea Level Pressure  
Sea Level Pressure 30.01 in    
Wind  
Wind Speed 13 mph (WNW)    
Max Wind Speed 22 mph    
Max Gust Speed 31 mph    
Visibility 9 miles    
Events      
T = Trace of Precipitation, MM = Missing Value Source: NWS Daily Summary

Daily Weather History Graph

Daily Weather History Graph

Search for Another Location

Airport or City:

Trip Planner

Search our weather history database for the weather conditions in past years. The results will help you decide how hot, cold, wet, or windy it might be!

Date:

Astronomy

Nov. 24, 2013 Rise Set
Actual Time 6:57 AM EST 4:19 PM EST
Civil Twilight 6:25 AM EST 4:51 PM EST
Nautical Twilight 5:50 AM EST 5:26 PM EST
Astronomical Twilight 5:16 AM EST 6:00 PM EST
Moon 10:48 PM EST (11/24) 11:38 AM EST (11/24)
Length of Visible Light 10h 25m
Length of Day
9h 22m
Waning Gibbous, 61% of the Moon is Illuminated
Nov 24
Waning Gibbous
Nov 25
Last Quarter
Dec 2
New
Dec 9
First Quarter
Dec 17
Full

Hourly Weather History & Observations

Time (EST) Temp. Windchill Dew Point Humidity Pressure Visibility Wind Dir Wind Speed Gust Speed Precip Events Conditions
12:15 AM 21.2 °F 7.3 °F 12.2 °F 68% 29.81 in 10.0 mi West 16.1 mph 20.7 mph N/A   Clear
12:35 AM 21.2 °F 10.1 °F 12.2 °F 68% 29.81 in 10.0 mi West 10.4 mph - N/A   Scattered Clouds
12:55 AM 21.2 °F 8.3 °F 10.4 °F 63% 29.81 in 10.0 mi West 13.8 mph 20.7 mph N/A   Mostly Cloudy
1:15 AM 19.4 °F 8.6 °F 17.6 °F 93% 29.82 in 1.8 mi WNW 9.2 mph 17.3 mph N/A   Overcast
1:35 AM 19.4 °F 8.6 °F 15.8 °F 86% 29.84 in 1.0 mi NW 9.2 mph 16.1 mph N/A   Overcast
1:55 AM 19.4 °F 6.6 °F 14.0 °F 80% 29.84 in 2.0 mi NW 12.7 mph 18.4 mph N/A   Overcast
2:15 AM 19.4 °F 6.0 °F 8.6 °F 63% 29.84 in 10.0 mi WNW 13.8 mph 21.9 mph N/A   Overcast
2:35 AM 19.4 °F 8.6 °F 8.6 °F 63% 29.85 in 10.0 mi WNW 9.2 mph 17.3 mph N/A   Overcast
2:55 AM 17.6 °F 2.7 °F 8.6 °F 68% 29.85 in 10.0 mi NW 16.1 mph - N/A   Overcast
3:15 AM 17.6 °F 5.7 °F 12.2 °F 79% 29.86 in 1.2 mi WNW 10.4 mph 18.4 mph N/A   Overcast
3:35 AM 15.8 °F 5.1 °F 12.2 °F 86% 29.86 in 2.0 mi WNW 8.1 mph 16.1 mph N/A   Overcast
3:55 AM 17.6 °F 8.2 °F 12.2 °F 79% 29.86 in 5.0 mi WNW 6.9 mph - N/A   Mostly Cloudy
4:15 AM 17.6 °F 4.3 °F 12.2 °F 79% 29.86 in 5.0 mi West 12.7 mph 19.6 mph N/A   Overcast
4:35 AM 15.8 °F 2.1 °F 8.6 °F 73% 29.87 in 6.0 mi West 12.7 mph 20.7 mph N/A   Overcast
4:55 AM 15.8 °F 2.1 °F 8.6 °F 73% 29.88 in 5.0 mi West 12.7 mph 18.4 mph N/A   Overcast
5:15 AM 15.8 °F 3.4 °F 8.6 °F 73% 29.89 in 5.0 mi WNW 10.4 mph - N/A   Overcast
5:35 AM 15.8 °F 2.1 °F 8.6 °F 73% 29.89 in 4.0 mi West 12.7 mph 18.4 mph N/A   Overcast
5:55 AM 15.8 °F 5.1 °F 6.8 °F 68% 29.90 in 7.0 mi West 8.1 mph - N/A   Overcast
6:15 AM 14.0 °F 0.5 °F 3.2 °F 62% 29.91 in 8.0 mi West 11.5 mph - N/A   Overcast
6:35 AM 12.2 °F -2.5 °F 3.2 °F 67% 29.92 in 10.0 mi West 12.7 mph 17.3 mph N/A   Overcast
6:55 AM 12.2 °F -4.3 °F 3.2 °F 67% 29.92 in 7.0 mi West 16.1 mph 19.6 mph N/A   Overcast
7:15 AM 12.2 °F -1.0 °F 5.0 °F 73% 29.93 in 9.0 mi West 10.4 mph 18.4 mph N/A   Overcast
7:35 AM 12.2 °F -1.0 °F 3.2 °F 67% 29.95 in 9.0 mi West 10.4 mph - N/A   Overcast
7:55 AM 12.2 °F -1.0 °F 1.4 °F 62% 29.96 in 10.0 mi West 10.4 mph - N/A   Overcast
8:15 AM 14.0 °F 2.0 °F 1.4 °F 57% 29.97 in 10.0 mi West 9.2 mph - N/A   Overcast
8:35 AM 14.0 °F 2.0 °F 1.4 °F 57% 29.98 in 9.0 mi West 9.2 mph - N/A   Overcast
8:55 AM 14.0 °F 0.5 °F -0.4 °F 53% 29.98 in 10.0 mi West 11.5 mph 18.4 mph N/A   Overcast
9:15 AM 15.8 °F 0.9 °F 1.4 °F 53% 29.98 in 10.0 mi West 15.0 mph 20.7 mph N/A   Overcast
9:35 AM 15.8 °F 2.1 °F 1.4 °F 53% 29.99 in 10.0 mi West 12.7 mph 20.7 mph N/A   Overcast
9:55 AM 15.8 °F 0.3 °F 1.4 °F 53% 29.99 in 9.0 mi NW 16.1 mph 24.2 mph N/A   Overcast
10:15 AM 17.6 °F 3.2 °F 1.4 °F 49% 30.00 in 4.0 mi NW 15.0 mph 31.1 mph N/A   Overcast
10:35 AM 17.6 °F 2.7 °F 1.4 °F 49% 30.00 in 10.0 mi WNW 16.1 mph 26.5 mph N/A   Overcast
10:55 AM 17.6 °F 1.7 °F -2.2 °F 42% 30.00 in 10.0 mi NW 18.4 mph 23.0 mph N/A   Overcast
11:15 AM 17.6 °F 1.3 °F -0.4 °F 45% 30.00 in 3.0 mi NNW 19.6 mph 32.2 mph N/A   Mostly Cloudy
11:35 AM 17.6 °F 2.7 °F -2.2 °F 42% 30.01 in 10.0 mi NNW 16.1 mph 31.1 mph N/A   Overcast
11:55 AM 19.4 °F 4.5 °F -2.2 °F 39% 30.02 in 10.0 mi NNW 17.3 mph 29.9 mph N/A   Mostly Cloudy
12:15 PM 19.4 °F 5.0 °F -2.2 °F 39% 30.02 in 10.0 mi WNW 16.1 mph 34.5 mph N/A   Mostly Cloudy
12:35 PM 19.4 °F 6.0 °F -2.2 °F 39% 30.02 in 10.0 mi WNW 13.8 mph 24.2 mph N/A   Partly Cloudy
12:55 PM 19.4 °F 2.8 °F -2.2 °F 39% 30.02 in 10.0 mi NW 21.9 mph 31.1 mph N/A   Clear
1:15 PM 19.4 °F 4.1 °F -2.2 °F 39% 30.02 in 10.0 mi NW 18.4 mph 25.3 mph N/A   Clear
1:35 PM 19.4 °F 4.1 °F -2.2 °F 39% 30.03 in 10.0 mi NW 18.4 mph 28.8 mph N/A   Clear
1:55 PM 21.2 °F 7.8 °F -0.4 °F 39% 30.03 in 10.0 mi NW 15.0 mph 28.8 mph N/A   Clear
2:15 PM 21.2 °F 8.9 °F -2.2 °F 36% 30.04 in 10.0 mi NW 12.7 mph 29.9 mph N/A   Clear
2:35 PM 19.4 °F 2.8 °F -2.2 °F 39% 30.04 in 10.0 mi NW 21.9 mph 28.8 mph N/A   Clear
2:55 PM 19.4 °F 4.5 °F -2.2 °F 39% 30.05 in 10.0 mi NW 17.3 mph 25.3 mph N/A   Partly Cloudy
3:15 PM 19.4 °F 5.0 °F -2.2 °F 39% 30.06 in 10.0 mi NW 16.1 mph 28.8 mph N/A   Mostly Cloudy
3:35 PM 19.4 °F 5.0 °F -2.2 °F 39% 30.06 in 10.0 mi NW 16.1 mph 28.8 mph N/A   Overcast
3:55 PM 19.4 °F 7.9 °F -2.2 °F 39% 30.07 in 10.0 mi NW 10.4 mph 21.9 mph N/A   Overcast
4:15 PM 19.4 °F 5.5 °F -2.2 °F 39% 30.08 in 10.0 mi WNW 15.0 mph 21.9 mph N/A   Overcast
4:35 PM 19.4 °F 5.5 °F -2.2 °F 39% 30.09 in 10.0 mi WNW 15.0 mph 25.3 mph N/A   Mostly Cloudy
4:55 PM 19.4 °F 5.0 °F -2.2 °F 39% 30.10 in 10.0 mi WNW 16.1 mph 23.0 mph N/A   Scattered Clouds
5:15 PM 17.6 °F 3.2 °F -2.2 °F 42% 30.11 in 10.0 mi WNW 15.0 mph 21.9 mph N/A   Clear
5:35 PM 17.6 °F 4.3 °F -2.2 °F 42% 30.12 in 10.0 mi WNW 12.7 mph 21.9 mph N/A   Clear
5:55 PM 17.6 °F 3.7 °F -2.2 °F 42% 30.12 in 10.0 mi WNW 13.8 mph 23.0 mph N/A   Clear
6:15 PM 17.6 °F 5.7 °F -2.2 °F 42% 30.13 in 10.0 mi WNW 10.4 mph 20.7 mph N/A   Clear
6:35 PM 17.6 °F 4.3 °F -2.2 °F 42% 30.14 in 10.0 mi West 12.7 mph 20.7 mph N/A   Clear
6:55 PM 17.6 °F 5.0 °F -2.2 °F 42% 30.14 in 10.0 mi WNW 11.5 mph 21.9 mph N/A   Clear
7:15 PM 15.8 °F 3.4 °F -2.2 °F 45% 30.15 in 10.0 mi West 10.4 mph 20.7 mph N/A   Clear
7:35 PM 15.8 °F 0.9 °F -2.2 °F 45% 30.16 in 10.0 mi West 15.0 mph 21.9 mph N/A   Clear
7:55 PM 15.8 °F 2.7 °F -2.2 °F 45% 30.16 in 10.0 mi WNW 11.5 mph 20.7 mph N/A   Clear
8:15 PM 15.8 °F 1.4 °F -2.2 °F 45% 30.16 in 10.0 mi West 13.8 mph 18.4 mph N/A   Clear
8:35 PM 15.8 °F 3.4 °F -2.2 °F 45% 30.16 in 10.0 mi West 10.4 mph 20.7 mph N/A   Clear
8:55 PM 15.8 °F 2.7 °F -4.0 °F 41% 30.17 in 10.0 mi WNW 11.5 mph 21.9 mph N/A   Clear
9:15 PM 15.8 °F 2.1 °F -2.2 °F 45% 30.17 in 10.0 mi West 12.7 mph 18.4 mph N/A   Clear
9:35 PM 14.0 °F 1.2 °F -2.2 °F 49% 30.18 in 10.0 mi West 10.4 mph 16.1 mph N/A   Clear
9:55 PM 14.0 °F 8.2 °F -2.2 °F 49% 30.19 in 10.0 mi WNW 3.5 mph - N/A   Clear
10:15 PM 14.0 °F 1.2 °F -5.8 °F 41% 30.19 in 10.0 mi West 10.4 mph 16.1 mph N/A   Clear
10:35 PM 14.0 °F 2.9 °F -5.8 °F 41% 30.19 in 10.0 mi West 8.1 mph - N/A   Clear
10:55 PM 14.0 °F 2.0 °F -7.6 °F 38% 30.20 in 10.0 mi WNW 9.2 mph 17.3 mph N/A   Clear
11:15 PM 12.2 °F 1.7 °F -5.8 °F 45% 30.20 in 10.0 mi NW 6.9 mph - N/A   Clear
11:35 PM 12.2 °F 0.7 °F -7.6 °F 41% 30.21 in 10.0 mi WNW 8.1 mph - N/A   Clear
11:55 PM 12.2 °F 1.7 °F -5.8 °F 45% 30.22 in 10.0 mi West 6.9 mph - N/A   Clear